createdAt,value
2018-06-09T00:00:32.043Z,0.00
2018-06-09T00:01:32.047Z,0.00
2018-06-09T00:03:25.074Z,0.00
2018-06-09T00:04:25.103Z,0.00
2018-06-09T00:06:18.149Z,0.00
2018-06-09T00:07:18.159Z,0.00
2018-06-09T00:09:11.186Z,0.00
2018-06-09T00:10:11.215Z,0.00
2018-06-09T00:12:04.268Z,0.00
2018-06-09T00:13:04.275Z,0.00
2018-06-09T00:14:57.300Z,0.00
2018-06-09T00:15:57.331Z,0.00
2018-06-09T00:17:50.277Z,0.00
2018-06-09T00:18:50.286Z,0.00
2018-06-09T00:20:43.744Z,0.00
2018-06-09T00:21:43.751Z,0.00
2018-06-09T00:23:36.776Z,0.00
2018-06-09T00:24:36.807Z,0.00
2018-06-09T00:26:29.857Z,0.00
2018-06-09T00:27:29.869Z,0.00
2018-06-09T00:29:22.891Z,0.00
2018-06-09T00:30:22.925Z,0.00
2018-06-09T00:32:15.971Z,0.00
2018-06-09T00:33:15.978Z,0.00
2018-06-09T00:35:09.003Z,0.00
2018-06-09T00:36:09.032Z,0.00
2018-06-09T00:38:02.082Z,0.00
2018-06-09T00:39:02.089Z,0.00
2018-06-09T00:40:55.116Z,0.00
2018-06-09T00:41:55.144Z,0.00
2018-06-09T00:43:48.194Z,0.00
2018-06-09T00:44:48.201Z,0.00
2018-06-09T00:46:41.250Z,0.00
2018-06-09T00:47:41.258Z,0.00
2018-06-09T00:49:34.286Z,0.00
2018-06-09T00:50:34.314Z,0.00
2018-06-09T00:52:27.771Z,0.00
2018-06-09T00:53:27.782Z,0.00
2018-06-09T00:55:20.810Z,0.00
2018-06-09T00:56:20.836Z,0.00
2018-06-09T00:58:13.883Z,0.00
2018-06-09T00:59:13.893Z,0.00
2018-06-09T01:01:06.925Z,0.00
2018-06-09T01:02:06.954Z,0.00
2018-06-09T01:03:59.996Z,0.00
2018-06-09T01:05:00.013Z,0.00
2018-06-09T01:06:52.961Z,0.00
2018-06-09T01:07:52.961Z,0.00
2018-06-09T01:09:45.988Z,0.00
2018-06-09T01:10:46.017Z,0.00
2018-06-09T01:12:39.065Z,0.00
2018-06-09T01:13:39.076Z,0.00
2018-06-09T01:15:32.104Z,0.00
2018-06-09T01:16:32.130Z,0.00
2018-06-09T01:18:25.180Z,0.00
2018-06-09T01:19:25.186Z,0.00
2018-06-09T01:21:18.216Z,0.00
2018-06-09T01:22:18.249Z,0.00
2018-06-09T01:24:11.292Z,0.00
2018-06-09T01:25:11.301Z,0.00
2018-06-09T01:27:04.329Z,0.00
2018-06-09T01:28:04.354Z,0.00
2018-06-09T01:29:57.404Z,0.00
2018-06-09T01:30:57.416Z,0.00
2018-06-09T01:32:50.461Z,0.00
2018-06-09T01:33:50.468Z,0.00
2018-06-09T01:35:43.497Z,0.00
2018-06-09T01:36:43.523Z,0.00
2018-06-09T01:38:36.573Z,0.00
2018-06-09T01:39:36.583Z,0.00
2018-06-09T01:41:29.512Z,0.00
2018-06-09T01:42:29.535Z,0.00
2018-06-09T01:44:22.582Z,0.00
2018-06-09T01:45:22.591Z,0.00
2018-06-09T01:47:15.618Z,0.00
2018-06-09T01:48:15.649Z,0.00
2018-06-09T01:50:08.693Z,0.00
2018-06-09T01:51:08.701Z,0.00
2018-06-09T01:53:01.653Z,0.00
2018-06-09T01:54:01.655Z,0.00
2018-06-09T01:55:55.095Z,0.00
2018-06-09T01:56:55.122Z,0.00
2018-06-09T01:58:48.174Z,0.00
2018-06-09T01:59:48.179Z,0.00
2018-06-09T02:01:41.214Z,0.00
2018-06-09T02:02:41.237Z,0.00
2018-06-09T02:04:34.181Z,0.00
2018-06-09T02:05:34.190Z,0.00
2018-06-09T02:07:27.119Z,0.00
2018-06-09T02:08:27.144Z,0.00
2018-06-09T02:10:20.191Z,0.00
2018-06-09T02:11:20.205Z,0.00
2018-06-09T02:13:13.162Z,0.00
2018-06-09T02:14:13.154Z,0.00
2018-06-09T02:16:06.187Z,0.00
2018-06-09T02:17:06.212Z,0.00
2018-06-09T02:18:59.261Z,0.00
2018-06-09T02:19:59.268Z,0.00
2018-06-09T02:21:52.299Z,0.00
2018-06-09T02:22:52.327Z,0.00
2018-06-09T02:24:45.783Z,0.00
2018-06-09T02:25:45.798Z,0.00
2018-06-09T02:27:38.822Z,4.00
2018-06-09T02:28:38.849Z,4.00
2018-06-09T02:30:31.905Z,0.00
2018-06-09T02:31:31.905Z,4.00
2018-06-09T02:33:25.344Z,4.00
2018-06-09T02:34:25.371Z,4.00
2018-06-09T02:36:18.827Z,4.00
2018-06-09T02:37:18.837Z,8.00
2018-06-09T02:39:11.884Z,8.00
2018-06-09T02:40:11.893Z,8.00
2018-06-09T02:42:04.924Z,12.00
2018-06-09T02:43:04.959Z,12.00
2018-06-09T02:44:58.000Z,16.00
2018-06-09T02:45:58.010Z,20.00
2018-06-09T02:47:51.037Z,24.00
2018-06-09T02:48:51.062Z,24.00
2018-06-09T02:50:44.111Z,32.00
2018-06-09T02:51:44.120Z,36.00
2018-06-09T02:53:37.149Z,44.00
2018-06-09T02:54:37.210Z,48.00
2018-06-09T02:56:30.229Z,56.00
2018-06-09T02:57:30.232Z,56.00
2018-06-09T02:59:23.286Z,68.00
2018-06-09T03:00:23.292Z,76.00
2018-06-09T03:02:16.321Z,84.00
2018-06-09T03:03:16.351Z,92.00
2018-06-09T03:05:09.293Z,104.00
2018-06-09T03:06:09.299Z,104.00
2018-06-09T03:08:02.741Z,116.00
2018-06-09T03:09:02.765Z,120.00
2018-06-09T03:10:55.711Z,136.00
2018-06-09T03:11:55.719Z,140.00
2018-06-09T03:13:48.646Z,160.00
2018-06-09T03:14:48.676Z,168.00
2018-06-09T03:16:41.620Z,188.00
2018-06-09T03:17:41.630Z,196.00
2018-06-09T03:19:34.715Z,224.00
2018-06-09T03:20:34.684Z,236.00
2018-06-09T03:22:27.630Z,272.00
2018-06-09T03:23:27.639Z,292.00
2018-06-09T03:25:20.587Z,324.00
2018-06-09T03:26:20.592Z,340.00
2018-06-09T03:28:13.519Z,372.00
2018-06-09T03:29:13.547Z,384.00
2018-06-09T03:31:06.492Z,416.00
2018-06-09T03:32:06.501Z,436.00
2018-06-09T03:33:59.429Z,480.00
2018-06-09T03:34:59.455Z,516.00
2018-06-09T03:36:52.402Z,584.00
2018-06-09T03:37:52.410Z,632.00
2018-06-09T03:39:45.339Z,720.00
2018-06-09T03:40:45.362Z,772.00
2018-06-09T03:42:38.315Z,884.00
2018-06-09T03:43:38.319Z,952.00
2018-06-09T03:45:31.366Z,1060.00
2018-06-09T03:46:31.373Z,1112.00
2018-06-09T03:48:24.302Z,1224.00
2018-06-09T03:49:24.328Z,1292.00
2018-06-09T03:51:18.816Z,1456.00
2018-06-09T03:52:18.821Z,1560.00
2018-06-09T03:54:13.282Z,1792.00
2018-06-09T03:55:13.307Z,1904.00
2018-06-09T03:57:06.259Z,2088.00
2018-06-09T03:58:06.263Z,2180.00
2018-06-09T03:59:59.182Z,2336.00
2018-06-09T04:00:59.210Z,2404.00
2018-06-09T04:02:52.148Z,2516.00
2018-06-09T04:03:52.159Z,2576.00
2018-06-09T04:05:45.080Z,2696.00
2018-06-09T04:06:45.106Z,2776.00
2018-06-09T04:08:38.043Z,2912.00
2018-06-09T04:09:38.056Z,2948.00
2018-06-09T04:11:30.998Z,3016.00
2018-06-09T04:12:31.000Z,3072.00
2018-06-09T04:14:23.918Z,3208.00
2018-06-09T04:15:23.946Z,3316.00
2018-06-09T04:17:17.378Z,3612.00
2018-06-09T04:18:17.386Z,3748.00
2018-06-09T04:20:10.312Z,3672.00
2018-06-09T04:21:10.334Z,3660.00
2018-06-09T04:23:03.274Z,3704.00
2018-06-09T04:24:03.283Z,3772.00
2018-06-09T04:25:56.201Z,3960.00
2018-06-09T04:26:56.228Z,4028.00
2018-06-09T04:28:49.171Z,4176.00
2018-06-09T04:29:49.177Z,4264.00
2018-06-09T04:31:42.124Z,4312.00
2018-06-09T04:32:42.129Z,4336.00
2018-06-09T04:34:35.052Z,4576.00
2018-06-09T04:35:35.077Z,4880.00
2018-06-09T04:37:28.024Z,6032.00
2018-06-09T04:38:28.028Z,6196.00
2018-06-09T04:40:20.956Z,8352.00
2018-06-09T04:41:20.981Z,9040.00
2018-06-09T04:43:13.939Z,10124.00
2018-06-09T04:44:13.953Z,10324.00
2018-06-09T04:46:06.913Z,10964.00
2018-06-09T04:47:06.896Z,11040.00
2018-06-09T04:48:59.867Z,11100.00
2018-06-09T04:49:59.845Z,11132.00
2018-06-09T04:51:53.264Z,11364.00
2018-06-09T04:52:53.297Z,11148.00
2018-06-09T04:54:46.249Z,11976.00
2018-06-09T04:55:46.250Z,12228.00
2018-06-09T04:57:39.202Z,12680.00
2018-06-09T04:58:39.210Z,12904.00
2018-06-09T05:00:32.136Z,13092.00
2018-06-09T05:01:32.168Z,12904.00
2018-06-09T05:03:25.618Z,12452.00
2018-06-09T05:04:25.630Z,12424.00
2018-06-09T05:06:18.561Z,12200.00
2018-06-09T05:07:18.683Z,12272.00
2018-06-09T05:09:12.035Z,12192.00
2018-06-09T05:10:12.051Z,12408.00
2018-06-09T05:12:04.980Z,11924.00
2018-06-09T05:13:05.067Z,11640.00
2018-06-09T05:14:57.970Z,11732.00
2018-06-09T05:15:57.975Z,11976.00
2018-06-09T05:17:50.940Z,11972.00
2018-06-09T05:18:50.942Z,12556.00
2018-06-09T05:20:43.875Z,11792.00
2018-06-09T05:21:43.905Z,13652.00
2018-06-09T05:23:36.865Z,15648.00
2018-06-09T05:24:36.888Z,16096.00
2018-06-09T05:26:29.800Z,16352.00
2018-06-09T05:27:29.832Z,16832.00
2018-06-09T05:29:23.324Z,17728.00
2018-06-09T05:30:23.338Z,18112.00
2018-06-09T05:32:16.273Z,19264.00
2018-06-09T05:33:16.311Z,19232.00
2018-06-09T05:35:09.256Z,18208.00
2018-06-09T05:36:09.269Z,18176.00
2018-06-09T05:38:02.225Z,17632.00
2018-06-09T05:39:02.234Z,18368.00
2018-06-09T05:40:55.171Z,20640.00
2018-06-09T05:41:55.210Z,19584.00
2018-06-09T05:43:48.157Z,19744.00
2018-06-09T05:44:48.173Z,20512.00
2018-06-09T05:46:41.596Z,20704.00
2018-06-09T05:47:41.630Z,21056.00
2018-06-09T05:49:34.625Z,21856.00
2018-06-09T05:50:34.600Z,23104.00
2018-06-09T05:52:27.537Z,24160.00
2018-06-09T05:53:27.573Z,23936.00
2018-06-09T05:55:20.530Z,24288.00
2018-06-09T05:56:20.541Z,23808.00
2018-06-09T05:58:13.482Z,24320.00
2018-06-09T05:59:13.513Z,25184.00
2018-06-09T06:01:06.472Z,26240.00
2018-06-09T06:02:06.484Z,26752.00
2018-06-09T06:03:59.472Z,26624.00
2018-06-09T06:04:59.456Z,26496.00
2018-06-09T06:06:52.888Z,26368.00
2018-06-09T06:07:52.924Z,27104.00
2018-06-09T06:09:45.881Z,27776.00
2018-06-09T06:10:45.899Z,27104.00
2018-06-09T06:12:38.840Z,27008.00
2018-06-09T06:13:38.878Z,26432.00
2018-06-09T06:15:31.837Z,25920.00
2018-06-09T06:16:31.849Z,26848.00
2018-06-09T06:18:24.789Z,29152.00
2018-06-09T06:19:24.823Z,28032.00
2018-06-09T06:21:17.784Z,26976.00
2018-06-09T06:22:17.804Z,22816.00
2018-06-09T06:24:10.750Z,22784.00
2018-06-09T06:25:10.785Z,18272.00
2018-06-09T06:27:03.741Z,14532.00
2018-06-09T06:28:03.759Z,14020.00
2018-06-09T06:29:56.726Z,13816.00
2018-06-09T06:30:56.732Z,13876.00
2018-06-09T06:32:49.671Z,13492.00
2018-06-09T06:33:49.705Z,13748.00
2018-06-09T06:35:42.667Z,14052.00
2018-06-09T06:36:42.684Z,13848.00
2018-06-09T06:38:35.617Z,13456.00
2018-06-09T06:39:35.650Z,13484.00
2018-06-09T06:41:28.609Z,14088.00
2018-06-09T06:42:28.616Z,14368.00
2018-06-09T06:44:21.550Z,15012.00
2018-06-09T06:45:21.584Z,15800.00
2018-06-09T06:47:14.545Z,16768.00
2018-06-09T06:48:14.548Z,19808.00
2018-06-09T06:50:07.486Z,20768.00
2018-06-09T06:51:07.516Z,23040.00
2018-06-09T06:53:00.470Z,24864.00
2018-06-09T06:54:00.482Z,26880.00
2018-06-09T06:55:53.438Z,33888.00
2018-06-09T06:56:53.451Z,22496.00
2018-06-09T06:58:46.385Z,30016.00
2018-06-09T06:59:46.419Z,28864.00
2018-06-09T07:01:39.376Z,21984.00
2018-06-09T07:02:39.394Z,24896.00
2018-06-09T07:04:32.324Z,33376.00
2018-06-09T07:05:32.358Z,37184.00
2018-06-09T07:07:25.315Z,34752.00
2018-06-09T07:08:25.331Z,27680.00
2018-06-09T07:10:18.268Z,17504.00
2018-06-09T07:11:18.306Z,19776.00
2018-06-09T07:13:11.260Z,24384.00
2018-06-09T07:14:11.275Z,25504.00
2018-06-09T07:16:04.217Z,15044.00
2018-06-09T07:17:04.248Z,13776.00
2018-06-09T07:18:57.206Z,24800.00
2018-06-09T07:19:57.218Z,14324.00
2018-06-09T07:21:50.181Z,27520.00
2018-06-09T07:22:50.195Z,14336.00
2018-06-09T07:24:43.136Z,13984.00
2018-06-09T07:25:43.172Z,14040.00
2018-06-09T07:27:36.124Z,13416.00
2018-06-09T07:28:36.136Z,13656.00
2018-06-09T07:30:29.072Z,14512.00
2018-06-09T07:31:29.105Z,14956.00
2018-06-09T07:33:22.065Z,16136.00
2018-06-09T07:34:22.088Z,16188.00
2018-06-09T07:36:15.018Z,15492.00
2018-06-09T07:37:15.053Z,15076.00
2018-06-09T07:39:08.007Z,14372.00
2018-06-09T07:40:08.060Z,13736.00
2018-06-09T07:42:00.960Z,12868.00
2018-06-09T07:43:00.990Z,12536.00
2018-06-09T07:44:53.944Z,11924.00
2018-06-09T07:45:53.959Z,12064.00
2018-06-09T07:47:46.914Z,12148.00
2018-06-09T07:48:46.927Z,12076.00
2018-06-09T07:50:39.862Z,11876.00
2018-06-09T07:51:39.896Z,11864.00
2018-06-09T07:53:32.850Z,11728.00
2018-06-09T07:54:32.860Z,11604.00
2018-06-09T07:56:25.832Z,11808.00
2018-06-09T07:57:25.861Z,11976.00
2018-06-09T07:59:18.817Z,12144.00
2018-06-09T08:00:18.828Z,12256.00
2018-06-09T08:02:11.763Z,12628.00
2018-06-09T08:03:11.792Z,12800.00
2018-06-09T08:05:04.747Z,13296.00
2018-06-09T08:06:04.761Z,13308.00
2018-06-09T08:07:57.693Z,12892.00
2018-06-09T08:08:57.724Z,12428.00
2018-06-09T08:10:50.684Z,12048.00
2018-06-09T08:11:50.694Z,12060.00
2018-06-09T08:13:43.647Z,11976.00
2018-06-09T08:14:43.664Z,12248.00
2018-06-09T08:16:36.589Z,12644.00
2018-06-09T08:17:36.622Z,12856.00
2018-06-09T08:19:29.637Z,12460.00
2018-06-09T08:20:29.594Z,12300.00
2018-06-09T08:22:22.519Z,12736.00
2018-06-09T08:23:22.553Z,13132.00
2018-06-09T08:25:15.507Z,14048.00
2018-06-09T08:26:15.517Z,14648.00
2018-06-09T08:28:08.454Z,15592.00
2018-06-09T08:29:08.541Z,15980.00
2018-06-09T08:31:01.936Z,16112.00
2018-06-09T08:32:01.949Z,15912.00
2018-06-09T08:33:55.374Z,15236.00
2018-06-09T08:34:55.408Z,14456.00
2018-06-09T08:36:48.362Z,13568.00
2018-06-09T08:37:48.374Z,13216.00
2018-06-09T08:39:41.337Z,12712.00
2018-06-09T08:40:41.338Z,12396.00
2018-06-09T08:42:34.274Z,12292.00
2018-06-09T08:43:34.308Z,12292.00
2018-06-09T08:45:27.263Z,12196.00
2018-06-09T08:46:27.278Z,11960.00
2018-06-09T08:48:20.211Z,11848.00
2018-06-09T08:49:20.246Z,11836.00
2018-06-09T08:51:13.690Z,11620.00
2018-06-09T08:52:13.711Z,11552.00
2018-06-09T08:54:06.638Z,11216.00
2018-06-09T08:55:06.669Z,11268.00
2018-06-09T08:56:59.624Z,11488.00
2018-06-09T08:57:59.635Z,11520.00
2018-06-09T08:59:52.572Z,11648.00
2018-06-09T09:00:52.604Z,11580.00
2018-06-09T09:02:45.560Z,11732.00
2018-06-09T09:03:45.566Z,11572.00
2018-06-09T09:05:38.521Z,11208.00
2018-06-09T09:06:38.532Z,11212.00
2018-06-09T09:08:31.472Z,11204.00
2018-06-09T09:09:31.502Z,11292.00
2018-06-09T09:11:24.948Z,11448.00
2018-06-09T09:12:24.960Z,11556.00
2018-06-09T09:14:17.893Z,12088.00
2018-06-09T09:15:17.925Z,12448.00
2018-06-09T09:17:10.883Z,13444.00
2018-06-09T09:18:10.892Z,14060.00
2018-06-09T09:20:03.826Z,15084.00
2018-06-09T09:21:03.856Z,15444.00
2018-06-09T09:22:56.812Z,15540.00
2018-06-09T09:23:56.826Z,15468.00
2018-06-09T09:25:49.764Z,15280.00
2018-06-09T09:26:49.792Z,15192.00
2018-06-09T09:28:42.747Z,15040.00
2018-06-09T09:29:42.757Z,14944.00
2018-06-09T09:31:35.715Z,14336.00
2018-06-09T09:32:35.722Z,14092.00
2018-06-09T09:34:28.658Z,13880.00
2018-06-09T09:35:28.692Z,13972.00
2018-06-09T09:37:21.647Z,14380.00
2018-06-09T09:38:21.657Z,14120.00
2018-06-09T09:40:14.594Z,13800.00
2018-06-09T09:41:14.626Z,13664.00
2018-06-09T09:43:07.580Z,13536.00
2018-06-09T09:44:07.590Z,13304.00
2018-06-09T09:46:00.524Z,13148.00
2018-06-09T09:47:00.557Z,12744.00
2018-06-09T09:48:53.512Z,12072.00
2018-06-09T09:49:53.525Z,11760.00
2018-06-09T09:51:46.455Z,11768.00
2018-06-09T09:52:46.489Z,11600.00
2018-06-09T09:54:39.445Z,11444.00
2018-06-09T09:55:39.455Z,11380.00
2018-06-09T09:57:32.902Z,11352.00
2018-06-09T09:58:32.921Z,11336.00
2018-06-09T10:00:25.852Z,11276.00
2018-06-09T10:01:25.884Z,11128.00
2018-06-09T10:03:18.840Z,10864.00
2018-06-09T10:04:18.853Z,10696.00
2018-06-09T10:06:11.792Z,10216.00
2018-06-09T10:07:11.824Z,9968.00
2018-06-09T10:09:04.782Z,9600.00
2018-06-09T10:10:04.794Z,9452.00
2018-06-09T10:11:57.760Z,9196.00
2018-06-09T10:12:57.761Z,9028.00
2018-06-09T10:14:50.697Z,8544.00
2018-06-09T10:15:50.732Z,8284.00
2018-06-09T10:17:44.183Z,7904.00
2018-06-09T10:18:44.195Z,7784.00
2018-06-09T10:20:37.125Z,7532.00
2018-06-09T10:21:37.160Z,7452.00
2018-06-09T10:23:30.118Z,7644.00
2018-06-09T10:24:30.132Z,7676.00
2018-06-09T10:26:23.070Z,7472.00
2018-06-09T10:27:23.143Z,7496.00
2018-06-09T10:29:16.073Z,7564.00
2018-06-09T10:30:16.073Z,7684.00
2018-06-09T10:32:09.012Z,7916.00
2018-06-09T10:33:09.042Z,8064.00
2018-06-09T10:35:02.021Z,8072.00
2018-06-09T10:36:02.012Z,8132.00
2018-06-09T10:37:54.965Z,8164.00
2018-06-09T10:38:54.974Z,8056.00
2018-06-09T10:40:48.401Z,7820.00
2018-06-09T10:41:48.435Z,7828.00
2018-06-09T10:43:41.391Z,7692.00
2018-06-09T10:44:41.398Z,7864.00
2018-06-09T10:46:34.336Z,7992.00
2018-06-09T10:47:34.372Z,7972.00
2018-06-09T10:49:27.326Z,8148.00
2018-06-09T10:50:27.340Z,8100.00
2018-06-09T10:52:20.274Z,7888.00
2018-06-09T10:53:20.306Z,7740.00
2018-06-09T10:55:13.261Z,7556.00
2018-06-09T10:56:13.272Z,7428.00
2018-06-09T10:58:06.227Z,7292.00
2018-06-09T10:59:06.236Z,7260.00
2018-06-09T11:00:59.171Z,7604.00
2018-06-09T11:01:59.209Z,7908.00
2018-06-09T11:03:53.661Z,8056.00
2018-06-09T11:04:53.676Z,8032.00
2018-06-09T11:06:46.607Z,8064.00
2018-06-09T11:07:46.641Z,8108.00
2018-06-09T11:09:39.600Z,8276.00
2018-06-09T11:10:39.614Z,8340.00
2018-06-09T11:12:32.545Z,8312.00
2018-06-09T11:13:32.579Z,8268.00
2018-06-09T11:15:25.534Z,8284.00
2018-06-09T11:16:25.549Z,8372.00
2018-06-09T11:18:19.023Z,8528.00
2018-06-09T11:19:19.022Z,8548.00
2018-06-09T11:21:11.980Z,8392.00
2018-06-09T11:22:11.989Z,8228.00
2018-06-09T11:24:04.947Z,7900.00
2018-06-09T11:25:04.960Z,7712.00
2018-06-09T11:26:57.900Z,7596.00
2018-06-09T11:27:57.932Z,7596.00
2018-06-09T11:29:51.380Z,7692.00
2018-06-09T11:30:51.417Z,7672.00
2018-06-09T11:32:44.332Z,7540.00
2018-06-09T11:33:44.361Z,7436.00
2018-06-09T11:35:37.318Z,7236.00
2018-06-09T11:36:37.333Z,7100.00
2018-06-09T11:38:30.271Z,6940.00
2018-06-09T11:39:30.300Z,6924.00
2018-06-09T11:41:23.256Z,6892.00
2018-06-09T11:42:23.271Z,6880.00
2018-06-09T11:44:16.230Z,6844.00
2018-06-09T11:45:16.278Z,6808.00
2018-06-09T11:47:09.214Z,6712.00
2018-06-09T11:48:09.246Z,6676.00
2018-06-09T11:50:02.164Z,6632.00
2018-06-09T11:51:02.177Z,6588.00
2018-06-09T11:52:55.108Z,6436.00
2018-06-09T11:53:55.146Z,6208.00
2018-06-09T11:55:48.097Z,6104.00
2018-06-09T11:56:48.107Z,6244.00
2018-06-09T11:58:41.064Z,6396.00
2018-06-09T11:59:41.072Z,6484.00
2018-06-09T12:01:34.033Z,6620.00
2018-06-09T12:02:34.047Z,6644.00
2018-06-09T12:04:26.985Z,6612.00
2018-06-09T12:05:27.018Z,6604.00
2018-06-09T12:07:19.974Z,6512.00
2018-06-09T12:08:19.987Z,6472.00
2018-06-09T12:10:12.941Z,6380.00
2018-06-09T12:11:12.956Z,6332.00
2018-06-09T12:13:05.890Z,6244.00
2018-06-09T12:14:05.949Z,6204.00
2018-06-09T12:15:58.877Z,6196.00
2018-06-09T12:16:58.893Z,6180.00
2018-06-09T12:18:51.830Z,6116.00
2018-06-09T12:19:51.864Z,6080.00
2018-06-09T12:21:44.823Z,6020.00
2018-06-09T12:22:44.836Z,6004.00
2018-06-09T12:24:37.772Z,6044.00
2018-06-09T12:25:37.809Z,6072.00
2018-06-09T12:27:30.760Z,6128.00
2018-06-09T12:28:30.773Z,6156.00
2018-06-09T12:30:23.725Z,6180.00
2018-06-09T12:31:23.742Z,6204.00
2018-06-09T12:33:16.672Z,6284.00
2018-06-09T12:34:16.704Z,6300.00
2018-06-09T12:36:09.660Z,6308.00
2018-06-09T12:37:09.674Z,6300.00
2018-06-09T12:39:02.629Z,6316.00
2018-06-09T12:40:02.655Z,6332.00
2018-06-09T12:41:55.611Z,6280.00
2018-06-09T12:42:55.627Z,6224.00
2018-06-09T12:44:48.564Z,6112.00
2018-06-09T12:45:48.590Z,6032.00
2018-06-09T12:47:41.545Z,5884.00
2018-06-09T12:48:41.564Z,5804.00
2018-06-09T12:50:34.488Z,5700.00
2018-06-09T12:51:34.573Z,5676.00
2018-06-09T12:53:27.476Z,5636.00
2018-06-09T12:54:27.488Z,5584.00
2018-06-09T12:56:20.448Z,5452.00
2018-06-09T12:57:20.455Z,5428.00
2018-06-09T12:59:13.390Z,5488.00
2018-06-09T13:00:13.424Z,5580.00
2018-06-09T13:02:06.383Z,5732.00
2018-06-09T13:03:06.396Z,5792.00
2018-06-09T13:04:59.332Z,5864.00
2018-06-09T13:05:59.362Z,5872.00
2018-06-09T13:07:52.317Z,5864.00
2018-06-09T13:08:52.327Z,5860.00
2018-06-09T13:10:45.328Z,5820.00
2018-06-09T13:11:45.302Z,5796.00
2018-06-09T13:13:38.251Z,5732.00
2018-06-09T13:14:38.266Z,5696.00
2018-06-09T13:16:31.199Z,5632.00
2018-06-09T13:17:31.234Z,5608.00
2018-06-09T13:19:24.208Z,5560.00
2018-06-09T13:20:24.201Z,5540.00
2018-06-09T13:22:17.157Z,5508.00
2018-06-09T13:23:17.172Z,5500.00
2018-06-09T13:25:10.108Z,5480.00
2018-06-09T13:26:10.145Z,5472.00
2018-06-09T13:28:03.099Z,5472.00
2018-06-09T13:29:03.112Z,5464.00
2018-06-09T13:30:56.045Z,5480.00
2018-06-09T13:31:56.080Z,5484.00
2018-06-09T13:33:49.529Z,5500.00
2018-06-09T13:34:49.544Z,5492.00
2018-06-09T13:36:42.502Z,5492.00
2018-06-09T13:37:42.510Z,5480.00
2018-06-09T13:39:35.465Z,5460.00
2018-06-09T13:40:35.477Z,5456.00
2018-06-09T13:42:28.415Z,5448.00
2018-06-09T13:43:28.446Z,5456.00
2018-06-09T13:45:21.401Z,5480.00
2018-06-09T13:46:21.413Z,5496.00
2018-06-09T13:48:14.367Z,5512.00
2018-06-09T13:49:14.381Z,5516.00
2018-06-09T13:51:07.319Z,5520.00
2018-06-09T13:52:07.357Z,5520.00
2018-06-09T13:54:00.308Z,5500.00
2018-06-09T13:55:00.320Z,5496.00
2018-06-09T13:56:53.253Z,5508.00
2018-06-09T13:57:53.287Z,5512.00
2018-06-09T13:59:46.238Z,5504.00
2018-06-09T14:00:46.251Z,5496.00
2018-06-09T14:02:39.682Z,5480.00
2018-06-09T14:03:39.714Z,5480.00
2018-06-09T14:05:32.669Z,5484.00
2018-06-09T14:06:32.681Z,5488.00
2018-06-09T14:08:25.636Z,5516.00
2018-06-09T14:09:25.650Z,5528.00
2018-06-09T14:11:18.593Z,5532.00
2018-06-09T14:12:18.622Z,5528.00
2018-06-09T14:14:11.583Z,5524.00
2018-06-09T14:15:11.597Z,5524.00
2018-06-09T14:17:04.529Z,5536.00
2018-06-09T14:18:04.564Z,5536.00
2018-06-09T14:19:57.515Z,5548.00
2018-06-09T14:20:57.529Z,5544.00
2018-06-09T14:22:50.472Z,5556.00
2018-06-09T14:23:50.502Z,5568.00
2018-06-09T14:25:43.454Z,5580.00
2018-06-09T14:26:43.469Z,5584.00
2018-06-09T14:28:36.403Z,5592.00
2018-06-09T14:29:36.435Z,5596.00
2018-06-09T14:31:29.393Z,5600.00
2018-06-09T14:32:29.408Z,5608.00
2018-06-09T14:34:22.368Z,5620.00
2018-06-09T14:35:22.372Z,5624.00
2018-06-09T14:37:15.315Z,5628.00
2018-06-09T14:38:15.342Z,5624.00
2018-06-09T14:40:08.785Z,5624.00
2018-06-09T14:41:08.805Z,5616.00
2018-06-09T14:43:01.736Z,5604.00
2018-06-09T14:44:01.774Z,5600.00
2018-06-09T14:45:54.725Z,5608.00
2018-06-09T14:46:54.736Z,5616.00
2018-06-09T14:48:47.670Z,5636.00
2018-06-09T14:49:47.702Z,5652.00
2018-06-09T14:51:40.682Z,5700.00
2018-06-09T14:52:40.679Z,5728.00
2018-06-09T14:54:34.133Z,5784.00
2018-06-09T14:55:34.146Z,5812.00
2018-06-09T14:57:27.572Z,5848.00
2018-06-09T14:58:27.608Z,5856.00
2018-06-09T15:00:20.568Z,5884.00
2018-06-09T15:01:20.581Z,5912.00
2018-06-09T15:03:14.008Z,5924.00
2018-06-09T15:04:14.043Z,5920.00
2018-06-09T15:06:06.996Z,5912.00
2018-06-09T15:07:07.010Z,5908.00
2018-06-09T15:08:59.947Z,5904.00
2018-06-09T15:09:59.983Z,5888.00
2018-06-09T15:11:52.937Z,5848.00
2018-06-09T15:12:52.951Z,5816.00
2018-06-09T15:14:45.890Z,5756.00
2018-06-09T15:15:45.926Z,5728.00
2018-06-09T15:17:38.888Z,5692.00
2018-06-09T15:18:38.909Z,5672.00
2018-06-09T15:20:31.860Z,5680.00
2018-06-09T15:21:31.877Z,5688.00
2018-06-09T15:23:24.818Z,5708.00
2018-06-09T15:24:24.851Z,5716.00
2018-06-09T15:26:17.808Z,5736.00
2018-06-09T15:27:17.824Z,5740.00
2018-06-09T15:29:10.755Z,5724.00
2018-06-09T15:30:10.787Z,5712.00
2018-06-09T15:32:03.761Z,5684.00
2018-06-09T15:33:03.758Z,5660.00
2018-06-09T15:34:56.695Z,5652.00
2018-06-09T15:35:56.729Z,5656.00
2018-06-09T15:37:49.685Z,5680.00
2018-06-09T15:38:49.696Z,5680.00
2018-06-09T15:40:42.652Z,5700.00
2018-06-09T15:41:42.668Z,5724.00
2018-06-09T15:43:35.601Z,5796.00
2018-06-09T15:44:35.636Z,5836.00
2018-06-09T15:46:30.125Z,5900.00
2018-06-09T15:47:30.099Z,5928.00
2018-06-09T15:49:23.033Z,5964.00
2018-06-09T15:50:23.065Z,5976.00
2018-06-09T15:52:16.521Z,6012.00
2018-06-09T15:53:16.533Z,6020.00
2018-06-09T15:55:11.000Z,5992.00
2018-06-09T15:56:11.034Z,5900.00
2018-06-09T15:58:04.051Z,5912.00
2018-06-09T15:59:03.999Z,5928.00
2018-06-09T16:00:56.984Z,6000.00
2018-06-09T16:01:57.032Z,6064.00
2018-06-09T16:03:49.935Z,6180.00
2018-06-09T16:04:49.950Z,6224.00
2018-06-09T16:06:42.909Z,6244.00
2018-06-09T16:07:42.930Z,6220.00
2018-06-09T16:09:35.861Z,6156.00
2018-06-09T16:10:35.898Z,6140.00
2018-06-09T16:12:28.938Z,6124.00
2018-06-09T16:13:28.926Z,6100.00
2018-06-09T16:15:21.951Z,6104.00
2018-06-09T16:16:21.985Z,6152.00
2018-06-09T16:18:15.536Z,6300.00
2018-06-09T16:19:15.547Z,6408.00
2018-06-09T16:21:08.572Z,6692.00
2018-06-09T16:22:08.606Z,6772.00
2018-06-09T16:24:01.649Z,6756.00
2018-06-09T16:25:01.662Z,6748.00
2018-06-09T16:26:54.703Z,6976.00
2018-06-09T16:27:54.718Z,7108.00
2018-06-09T16:29:47.741Z,6888.00
2018-06-09T16:30:47.774Z,6644.00
2018-06-09T16:32:40.856Z,6308.00
2018-06-09T16:33:40.835Z,6236.00
2018-06-09T16:35:33.854Z,6244.00
2018-06-09T16:36:33.886Z,6260.00
2018-06-09T16:38:26.943Z,6240.00
2018-06-09T16:39:26.943Z,6228.00
2018-06-09T16:41:20.479Z,6224.00
2018-06-09T16:42:20.515Z,6228.00
2018-06-09T16:44:13.558Z,6236.00
2018-06-09T16:45:13.572Z,6224.00
2018-06-09T16:47:06.593Z,6176.00
2018-06-09T16:48:06.625Z,6160.00
2018-06-09T16:50:00.179Z,6160.00
2018-06-09T16:51:00.198Z,6204.00
2018-06-09T16:52:53.235Z,6328.00
2018-06-09T16:53:53.253Z,6380.00
2018-06-09T16:55:46.282Z,6444.00
2018-06-09T16:56:46.304Z,6556.00
2018-06-09T16:58:39.351Z,6880.00
2018-06-09T16:59:39.385Z,6992.00
2018-06-09T17:01:32.415Z,6872.00
2018-06-09T17:02:32.419Z,6752.00
2018-06-09T17:04:25.975Z,6524.00
2018-06-09T17:05:25.990Z,6332.00
2018-06-09T17:07:19.012Z,6132.00
2018-06-09T17:08:19.044Z,6156.00
2018-06-09T17:10:12.084Z,6148.00
2018-06-09T17:11:12.106Z,6208.00
2018-06-09T17:13:05.122Z,6320.00
2018-06-09T17:14:05.156Z,6448.00
2018-06-09T17:15:58.198Z,6568.00
2018-06-09T17:16:58.212Z,6532.00
2018-06-09T17:18:51.252Z,6508.00
2018-06-09T17:19:51.266Z,6512.00
2018-06-09T17:21:44.293Z,6628.00
2018-06-09T17:22:44.390Z,6728.00
2018-06-09T17:24:37.367Z,6400.00
2018-06-09T17:25:37.385Z,6020.00
2018-06-09T17:27:30.402Z,5220.00
2018-06-09T17:28:30.436Z,4920.00
2018-06-09T17:30:23.484Z,4580.00
2018-06-09T17:31:23.502Z,4572.00
2018-06-09T17:33:16.519Z,4976.00